Time,TemperatureF,DewpointF,PressureIn,WindDirection,WindDirectionDegrees,WindSpeedMPH,WindSpeedGustMPH,Humidity,HourlyPrecipIn,Conditions,Clouds,dailyrainin,SoftwareType,DateUTC
2013-03-13 00:02:00,69.3,66.0,29.98,West,267,1.0,2.0,88,0.00,,,0.00,weatherlink.com 1.10,2013-03-13 04:02:00,
2013-03-13 00:17:00,69.4,66.0,29.98,NW,308,0.0,2.0,89,0.00,,,0.00,weatherlink.com 1.10,2013-03-13 04:17:00,
2013-03-13 00:32:00,69.2,66.0,29.98,ESE,111,0.0,1.0,89,0.00,,,0.00,weatherlink.com 1.10,2013-03-13 04:32:00,
2013-03-13 00:47:00,69.1,66.0,29.98,West,278,0.0,2.0,89,0.00,,,0.00,weatherlink.com 1.10,2013-03-13 04:47:00,
2013-03-13 01:02:00,69.0,66.0,29.98,SW,216,1.0,3.0,90,0.00,,,0.00,weatherlink.com 1.10,2013-03-13 05:02:00,
2013-03-13 01:17:00,68.7,65.0,29.98,NW,316,2.0,8.0,89,0.00,,,0.00,weatherlink.com 1.10,2013-03-13 05:17:00,
2013-03-13 01:32:00,68.2,65.0,29.98,NW,311,1.0,5.0,89,0.00,,,0.00,weatherlink.com 1.10,2013-03-13 05:32:00,
2013-03-13 01:48:00,67.6,64.0,29.99,NW,311,3.0,9.0,89,0.00,,,0.00,weatherlink.com 1.10,2013-03-13 05:48:00,
2013-03-13 02:03:00,67.2,64.0,29.98,NNW,331,0.0,7.0,89,0.00,,,0.00,weatherlink.com 1.10,2013-03-13 06:03:00,
2013-03-13 02:18:00,66.4,63.0,29.98,NNE,19,2.0,9.0,88,0.00,,,0.00,weatherlink.com 1.10,2013-03-13 06:18:00,
2013-03-13 02:34:00,66.0,63.0,29.98,NW,304,0.0,8.0,89,0.00,,,0.00,weatherlink.com 1.10,2013-03-13 06:34:00,
2013-03-13 02:48:00,65.7,62.0,29.98,NNW,337,2.0,4.0,89,0.00,,,0.00,weatherlink.com 1.10,2013-03-13 06:48:00,
2013-03-13 03:03:00,65.2,62.0,29.97,NNW,338,1.0,6.0,89,0.00,,,0.00,weatherlink.com 1.10,2013-03-13 07:03:00,
2013-03-13 03:18:00,64.7,62.0,29.97,North,354,0.0,9.0,89,0.00,,,0.00,weatherlink.com 1.10,2013-03-13 07:18:00,
2013-03-13 03:33:00,63.8,60.0,29.96,WNW,284,2.0,11.0,88,0.00,,,0.00,weatherlink.com 1.10,2013-03-13 07:33:00,
2013-03-13 03:48:00,63.2,60.0,29.96,NW,326,0.0,9.0,88,0.00,,,0.00,weatherlink.com 1.10,2013-03-13 07:48:00,
2013-03-13 04:03:00,62.5,59.0,29.97,ENE,65,0.0,6.0,88,0.00,,,0.00,weatherlink.com 1.10,2013-03-13 08:03:00,
2013-03-13 04:18:00,62.1,59.0,29.97,NNE,27,2.0,7.0,88,0.00,,,0.00,weatherlink.com 1.10,2013-03-13 08:18:00,
2013-03-13 04:33:00,60.7,57.0,29.98,WNW,302,2.0,11.0,88,0.00,,,0.00,weatherlink.com 1.10,2013-03-13 08:33:00,
2013-03-13 04:48:00,59.6,56.0,29.98,North,350,0.0,12.0,89,0.00,,,0.00,weatherlink.com 1.10,2013-03-13 08:48:00,
2013-03-13 05:03:00,58.6,56.0,29.99,North,11,3.0,7.0,91,0.00,,,0.00,weatherlink.com 1.10,2013-03-13 09:03:00,
2013-03-13 05:18:00,58.0,55.0,29.98,North,11,1.0,8.0,91,0.00,,,0.00,weatherlink.com 1.10,2013-03-13 09:18:00,
2013-03-13 05:33:00,57.5,55.0,29.98,NNE,29,2.0,5.0,92,0.00,,,0.00,weatherlink.com 1.10,2013-03-13 09:33:00,
2013-03-13 05:48:00,57.2,55.0,29.99,NNW,331,0.0,7.0,93,0.00,,,0.00,weatherlink.com 1.10,2013-03-13 09:48:00,
2013-03-13 06:03:00,57.5,56.0,30.00,WNW,303,2.0,6.0,94,0.00,,,0.00,weatherlink.com 1.10,2013-03-13 10:03:00,
2013-03-13 06:18:00,57.5,56.0,30.00,NW,315,0.0,4.0,94,0.00,,,0.00,weatherlink.com 1.10,2013-03-13 10:18:00,
2013-03-13 06:33:00,57.3,56.0,30.01,North,356,0.0,5.0,94,0.00,,,0.00,weatherlink.com 1.10,2013-03-13 10:33:00,
2013-03-13 06:48:00,56.8,55.0,30.01,NW,311,0.0,6.0,94,0.00,,,0.00,weatherlink.com 1.10,2013-03-13 10:48:00,
2013-03-13 07:03:00,56.5,55.0,30.02,North,1,0.0,4.0,94,0.00,,,0.00,weatherlink.com 1.10,2013-03-13 11:03:00,
2013-03-13 07:18:00,56.1,54.0,30.02,ESE,110,0.0,4.0,94,0.00,,,0.00,weatherlink.com 1.10,2013-03-13 11:18:00,
2013-03-13 07:33:00,55.8,54.0,30.02,NNW,346,0.0,3.0,94,0.00,,,0.00,weatherlink.com 1.10,2013-03-13 11:33:00,
2013-03-13 07:48:00,55.6,54.0,30.03,NW,315,0.0,1.0,94,0.00,,,0.00,weatherlink.com 1.10,2013-03-13 11:48:00,
2013-03-13 08:03:00,55.8,54.0,30.03,NNE,29,0.0,3.0,94,0.00,,,0.00,weatherlink.com 1.10,2013-03-13 12:03:00,
2013-03-13 08:19:00,56.2,54.0,30.04,WNW,287,1.0,4.0,93,0.00,,,0.00,weatherlink.com 1.10,2013-03-13 12:19:00,
2013-03-13 08:34:00,56.7,55.0,30.05,ENE,74,1.0,3.0,93,0.00,,,0.00,weatherlink.com 1.10,2013-03-13 12:34:00,
2013-03-13 08:49:00,57.1,54.0,30.05,ENE,62,0.0,4.0,90,0.00,,,0.00,weatherlink.com 1.10,2013-03-13 12:49:00,
2013-03-13 09:04:00,58.0,54.0,30.06,NNE,25,0.0,4.0,87,0.00,,,0.00,weatherlink.com 1.10,2013-03-13 13:04:00,
2013-03-13 09:19:00,58.6,54.0,30.06,NNE,19,0.0,5.0,85,0.00,,,0.00,weatherlink.com 1.10,2013-03-13 13:19:00,
2013-03-13 09:34:00,59.2,54.0,30.07,NE,54,0.0,4.0,84,0.00,,,0.00,weatherlink.com 1.10,2013-03-13 13:34:00,
2013-03-13 09:49:00,60.5,55.0,30.07,NW,315,1.0,5.0,82,0.00,,,0.00,weatherlink.com 1.10,2013-03-13 13:49:00,
2013-03-13 10:04:00,61.1,56.0,30.07,North,6,2.0,4.0,82,0.00,,,0.00,weatherlink.com 1.10,2013-03-13 14:04:00,
2013-03-13 10:19:00,62.1,56.0,30.08,North,356,1.0,3.0,79,0.00,,,0.00,weatherlink.com 1.10,2013-03-13 14:19:00,
2013-03-13 10:34:00,62.8,56.0,30.08,NE,53,1.0,7.0,78,0.00,,,0.00,weatherlink.com 1.10,2013-03-13 14:34:00,
2013-03-13 10:49:00,64.0,56.0,30.09,ENE,68,0.0,6.0,76,0.00,,,0.00,weatherlink.com 1.10,2013-03-13 14:49:00,
2013-03-13 11:04:00,65.3,57.0,30.09,NNE,13,0.0,7.0,75,0.00,,,0.00,weatherlink.com 1.10,2013-03-13 15:04:00,
2013-03-13 11:19:00,66.6,58.0,30.09,NW,305,2.0,4.0,73,0.00,,,0.00,weatherlink.com 1.10,2013-03-13 15:19:00,
2013-03-13 11:34:00,67.9,59.0,30.09,North,354,1.0,4.0,72,0.00,,,0.00,weatherlink.com 1.10,2013-03-13 15:34:00,
2013-03-13 11:49:00,69.1,59.0,30.09,NNE,32,0.0,7.0,69,0.00,,,0.00,weatherlink.com 1.10,2013-03-13 15:49:00,
2013-03-13 12:04:00,69.9,59.0,30.09,North,8,0.0,7.0,68,0.00,,,0.00,weatherlink.com 1.10,2013-03-13 16:04:00,
2013-03-13 12:19:00,70.7,60.0,30.09,ENE,77,2.0,5.0,68,0.00,,,0.00,weatherlink.com 1.10,2013-03-13 16:19:00,
2013-03-13 12:34:00,71.4,60.0,30.09,East,98,0.0,4.0,68,0.00,,,0.00,weatherlink.com 1.10,2013-03-13 16:34:00,
2013-03-13 12:49:00,72.2,60.0,30.08,NW,318,5.0,7.0,66,0.00,,,0.00,weatherlink.com 1.10,2013-03-13 16:49:00,
2013-03-13 13:04:00,73.1,57.0,30.08,NNE,12,3.0,7.0,58,0.00,,,0.00,weatherlink.com 1.10,2013-03-13 17:04:00,
2013-03-13 13:19:00,73.4,57.0,30.07,North,1,2.0,6.0,56,0.00,,,0.00,weatherlink.com 1.10,2013-03-13 17:19:00,
2013-03-13 13:34:00,74.3,56.0,30.07,WNW,290,1.0,7.0,54,0.00,,,0.00,weatherlink.com 1.10,2013-03-13 17:34:00,
2013-03-13 13:49:00,74.2,56.0,30.07,NNE,13,2.0,7.0,53,0.00,,,0.00,weatherlink.com 1.10,2013-03-13 17:49:00,
2013-03-13 14:04:00,74.2,56.0,30.06,ENE,60,1.0,6.0,54,0.00,,,0.00,weatherlink.com 1.10,2013-03-13 18:04:00,
2013-03-13 14:19:00,75.3,57.0,30.05,North,9,4.0,7.0,53,0.00,,,0.00,weatherlink.com 1.10,2013-03-13 18:19:00,
2013-03-13 14:34:00,75.3,55.0,30.05,NW,309,3.0,8.0,50,0.00,,,0.00,weatherlink.com 1.10,2013-03-13 18:34:00,
2013-03-13 14:49:00,76.1,57.0,30.04,North,7,2.0,8.0,51,0.00,,,0.00,weatherlink.com 1.10,2013-03-13 18:49:00,
2013-03-13 15:04:00,75.7,53.0,30.04,NNE,21,3.0,9.0,46,0.00,,,0.00,weatherlink.com 1.10,2013-03-13 19:04:00,
2013-03-13 15:20:00,76.7,53.0,30.04,NNE,26,1.0,6.0,44,0.00,,,0.00,weatherlink.com 1.10,2013-03-13 19:20:00,
2013-03-13 15:35:00,76.2,53.0,30.04,NE,37,1.0,4.0,44,0.00,,,0.00,weatherlink.com 1.10,2013-03-13 19:35:00,
2013-03-13 15:50:00,75.4,53.0,30.04,NW,305,1.0,5.0,46,0.00,,,0.00,weatherlink.com 1.10,2013-03-13 19:50:00,
2013-03-13 16:05:00,74.9,51.0,30.03,NE,37,2.0,7.0,43,0.00,,,0.00,weatherlink.com 1.10,2013-03-13 20:05:00,
2013-03-13 16:20:00,75.1,52.0,30.03,NNW,347,1.0,8.0,44,0.00,,,0.00,weatherlink.com 1.10,2013-03-13 20:20:00,
2013-03-13 16:35:00,75.0,52.0,30.02,NNE,20,0.0,10.0,44,0.00,,,0.00,weatherlink.com 1.10,2013-03-13 20:35:00,
2013-03-13 16:50:00,75.3,52.0,30.02,East,82,3.0,8.0,44,0.00,,,0.00,weatherlink.com 1.10,2013-03-13 20:50:00,
2013-03-13 17:05:00,74.9,51.0,30.03,East,88,4.0,10.0,44,0.00,,,0.00,weatherlink.com 1.10,2013-03-13 21:05:00,
2013-03-13 17:20:00,74.4,50.0,30.02,NE,47,2.0,7.0,43,0.00,,,0.00,weatherlink.com 1.10,2013-03-13 21:20:00,
2013-03-13 17:35:00,74.2,48.0,30.03,NNE,27,1.0,7.0,40,0.00,,,0.00,weatherlink.com 1.10,2013-03-13 21:35:00,
2013-03-13 17:50:00,73.7,45.0,30.03,NNE,12,3.0,7.0,36,0.00,,,0.00,weatherlink.com 1.10,2013-03-13 21:50:00,
2013-03-13 18:05:00,73.3,47.0,30.03,NE,39,1.0,6.0,40,0.00,,,0.00,weatherlink.com 1.10,2013-03-13 22:05:00,
2013-03-13 18:20:00,73.0,48.0,30.03,East,98,3.0,6.0,42,0.00,,,0.00,weatherlink.com 1.10,2013-03-13 22:20:00,
2013-03-13 18:35:00,72.4,46.0,30.04,NE,41,2.0,6.0,39,0.00,,,0.00,weatherlink.com 1.10,2013-03-13 22:35:00,
2013-03-13 18:50:00,72.1,47.0,30.04,ENE,63,0.0,5.0,41,0.00,,,0.00,weatherlink.com 1.10,2013-03-13 22:50:00,
2013-03-13 19:05:00,71.2,49.0,30.04,East,85,0.0,4.0,45,0.00,,,0.00,weatherlink.com 1.10,2013-03-13 23:05:00,
2013-03-13 19:20:00,69.3,46.0,30.05,NE,42,0.0,5.0,43,0.00,,,0.00,weatherlink.com 1.10,2013-03-13 23:20:00,
2013-03-13 19:35:00,67.9,46.0,30.05,ESE,114,1.0,2.0,45,0.00,,,0.00,weatherlink.com 1.10,2013-03-13 23:35:00,
2013-03-13 19:50:00,67.0,46.0,30.05,ENE,74,0.0,2.0,47,0.00,,,0.00,weatherlink.com 1.10,2013-03-13 23:50:00,
2013-03-13 20:05:00,65.8,46.0,30.06,ENE,67,0.0,1.0,49,0.00,,,0.00,weatherlink.com 1.10,2013-03-14 00:05:00,
2013-03-13 20:20:00,64.2,46.0,30.07,ENE,76,0.0,1.0,52,0.00,,,0.00,weatherlink.com 1.10,2013-03-14 00:20:00,
2013-03-13 20:36:00,62.9,47.0,30.07,ENE,77,0.0,1.0,56,0.00,,,0.00,weatherlink.com 1.10,2013-03-14 00:36:00,
2013-03-13 20:50:00,61.9,47.0,30.07,ENE,76,0.0,1.0,59,0.00,,,0.00,weatherlink.com 1.10,2013-03-14 00:50:00,
2013-03-13 21:05:00,60.5,49.0,30.07,ENE,76,0.0,0.0,66,0.00,,,0.00,weatherlink.com 1.10,2013-03-14 01:05:00,
2013-03-13 21:20:00,59.5,49.0,30.08,ENE,77,0.0,0.0,68,0.00,,,0.00,weatherlink.com 1.10,2013-03-14 01:20:00,
2013-03-13 21:35:00,58.4,50.0,30.08,ENE,76,0.0,0.0,73,0.00,,,0.00,weatherlink.com 1.10,2013-03-14 01:35:00,
2013-03-13 21:50:00,58.0,50.0,30.09,ENE,76,0.0,0.0,75,0.00,,,0.00,weatherlink.com 1.10,2013-03-14 01:50:00,
2013-03-13 22:06:00,57.2,50.0,30.10,ENE,76,0.0,0.0,77,0.00,,,0.00,weatherlink.com 1.10,2013-03-14 02:06:00,
2013-03-13 22:21:00,56.6,51.0,30.10,ENE,76,0.0,0.0,81,0.00,,,0.00,weatherlink.com 1.10,2013-03-14 02:21:00,
2013-03-13 22:36:00,56.1,51.0,30.10,ENE,76,0.0,0.0,83,0.00,,,0.00,weatherlink.com 1.10,2013-03-14 02:36:00,
2013-03-13 22:51:00,55.7,51.0,30.10,ENE,77,0.0,0.0,85,0.00,,,0.00,weatherlink.com 1.10,2013-03-14 02:51:00,
2013-03-13 23:21:00,54.7,51.0,30.10,ENE,76,0.0,0.0,88,0.00,,,0.00,weatherlink.com 1.10,2013-03-14 03:21:00,
2013-03-13 23:51:00,53.7,51.0,30.11,ENE,76,0.0,0.0,91,0.00,,,0.00,weatherlink.com 1.10,2013-03-14 03:51:00,